Time;durP1;ratioP1;P1;durP2;ratioP2;P2;SDS_P1;SDS_P2;PMS_P1;PMS_P2;Temp;Humidity;BMP_temperature;BMP_pressure;BME280_temperature;BME280_humidity;BME280_pressure;Samples;Min_cycle;Max_cycle;Signal;HPM_P1;HPM_P2
2023/04/26 00:01:41;;;;;;;10.80;9.90;;;;;;;7.06;100.00;100440.69;5079967;28;20306;-74
2023/04/26 00:04:07;;;;;;;11.93;10.93;;;;;;;7.01;100.00;100444.09;5076690;28;20196;-74
2023/04/26 00:06:33;;;;;;;12.10;11.10;;;;;;;6.96;100.00;100439.75;5079357;28;20206;-75
2023/04/26 00:08:59;;;;;;;12.43;11.33;;;;;;;6.93;100.00;100432.03;5077216;28;20216;-74
2023/04/26 00:11:24;;;;;;;12.70;11.60;;;;;;;6.91;100.00;100438.88;5077881;28;20189;-74
2023/04/26 00:13:49;;;;;;;11.43;10.43;;;;;;;6.88;100.00;100434.56;5078152;28;20817;-74
2023/04/26 00:16:15;;;;;;;11.43;10.43;;;;;;;6.88;100.00;100431.09;5078187;28;20197;-74
2023/04/26 00:18:42;;;;;;;12.13;11.10;;;;;;;6.88;100.00;100436.25;5077116;28;20237;-75
2023/04/26 00:21:07;;;;;;;12.40;11.40;;;;;;;6.88;100.00;100433.69;5076126;28;20229;-74
2023/04/26 00:23:32;;;;;;;12.70;11.67;;;;;;;6.90;100.00;100442.28;5079239;28;20190;-74
2023/04/26 00:25:59;;;;;;;12.43;11.43;;;;;;;6.93;100.00;100435.44;5078669;28;20202;-74
2023/04/26 00:28:24;;;;;;;13.70;12.50;;;;;;;6.97;100.00;100438.91;5079438;28;21026;-74
2023/04/26 00:30:50;;;;;;;12.67;11.67;;;;;;;6.99;100.00;100434.63;5076646;28;20186;-74
2023/04/26 00:33:15;;;;;;;11.70;10.70;;;;;;;7.00;100.00;100438.94;5077415;28;20200;-74
2023/04/26 00:35:41;;;;;;;11.40;10.37;;;;;;;7.00;100.00;100426.06;5079590;28;20181;-74
2023/04/26 00:38:06;;;;;;;9.47;8.57;;;;;;;7.00;100.00;100424.38;5075661;28;20217;-75
2023/04/26 00:40:34;;;;;;;8.70;7.90;;;;;;;6.97;100.00;100420.88;5075393;28;20356;-73
2023/04/26 00:42:59;;;;;;;8.10;7.40;;;;;;;6.93;100.00;100426.88;5080558;28;20183;-74
2023/04/26 00:45:25;;;;;;;7.63;6.90;;;;;;;6.86;100.00;100434.53;5077051;28;20233;-74
2023/04/26 00:47:51;;;;;;;6.13;5.63;;;;;;;6.81;100.00;100432.78;5076847;28;20216;-74
2023/04/26 00:50:18;;;;;;;7.07;5.77;;;;;;;6.79;100.00;100425.06;5077279;28;20184;-74
2023/04/26 00:52:45;;;;;;;5.73;5.23;;;;;;;6.77;100.00;100431.00;5078733;28;20838;-74
2023/04/26 00:55:11;;;;;;;6.03;5.53;;;;;;;6.75;100.00;100425.88;5079818;28;20603;-73
2023/04/26 00:57:38;;;;;;;6.00;5.50;;;;;;;6.77;100.00;100425.88;5062155;28;20311;-73
2023/04/26 01:00:04;;;;;;;6.87;6.17;;;;;;;6.78;100.00;100425.00;5078761;28;20882;-74
2023/04/26 01:02:29;;;;;;;6.07;5.57;;;;;;;6.81;100.00;100422.47;5076286;28;20191;-74
2023/04/26 01:04:55;;;;;;;6.10;5.60;;;;;;;6.83;100.00;100434.50;5081269;28;20556;-74
2023/04/26 01:07:20;;;;;;;6.27;5.77;;;;;;;6.89;100.00;100432.84;5080487;28;20232;-74
2023/04/26 01:09:47;;;;;;;6.90;6.27;;;;;;;6.94;100.00;100438.91;5076900;28;21958;-73
2023/04/26 01:12:13;;;;;;;6.77;6.20;;;;;;;7.00;100.00;100441.50;5080144;28;20195;-73
2023/04/26 01:14:38;;;;;;;6.30;5.80;;;;;;;7.08;100.00;100446.72;5079686;28;20196;-74
2023/04/26 01:17:04;;;;;;;6.27;5.63;;;;;;;7.14;100.00;100439.91;5077595;28;20298;-74
2023/04/26 01:19:31;;;;;;;6.20;5.70;;;;;;;7.20;100.00;100438.22;5076523;28;20954;-73
2023/04/26 01:21:57;;;;;;;6.30;5.70;;;;;;;7.22;100.00;100431.38;5078823;28;20522;-73
2023/04/26 01:24:22;;;;;;;6.67;6.00;;;;;;;7.22;100.00;100429.66;5074319;28;20218;-74
2023/04/26 01:26:48;;;;;;;6.37;5.87;;;;;;;7.23;100.00;100430.53;5081332;28;20323;-74
2023/04/26 01:29:14;;;;;;;6.40;5.90;;;;;;;7.19;100.00;100423.63;5079205;28;20239;-73
2023/04/26 01:31:40;;;;;;;6.70;6.20;;;;;;;7.14;100.00;100421.03;5077823;28;20285;-74
2023/04/26 01:34:05;;;;;;;6.53;6.03;;;;;;;7.08;100.00;100428.69;5076348;28;20188;-74
2023/04/26 01:36:31;;;;;;;6.77;6.27;;;;;;;7.00;100.00;100424.38;5077842;28;20184;-75
2023/04/26 01:38:56;;;;;;;6.90;6.40;;;;;;;6.95;100.00;100426.03;5079627;28;21169;-71
2023/04/26 01:41:23;;;;;;;7.30;6.27;;;;;;;6.94;100.00;100426.88;5080459;28;20303;-73
2023/04/26 01:43:48;;;;;;;7.93;7.27;;;;;;;6.92;100.00;100427.72;5080773;28;20181;-74
2023/04/26 01:46:14;;;;;;;8.30;7.60;;;;;;;6.90;100.00;100427.69;5080638;28;20199;-74
2023/04/26 01:48:39;;;;;;;7.20;6.70;;;;;;;6.88;100.00;100434.56;5081433;28;20208;-74
2023/04/26 01:51:04;;;;;;;8.03;7.33;;;;;;;6.83;100.00;100431.06;5079114;28;20215;-73
2023/04/26 01:53:30;;;;;;;8.90;8.20;;;;;;;6.79;100.00;100426.75;5077326;28;20194;-74
2023/04/26 01:55:55;;;;;;;8.93;8.23;;;;;;;6.73;100.00;100435.28;5084180;28;20226;-74
2023/04/26 01:58:21;;;;;;;8.47;7.77;;;;;;;6.69;100.00;100433.50;5082469;28;20752;-73
2023/04/26 02:00:46;;;;;;;8.60;7.90;;;;;;;6.63;100.00;100423.19;5045439;28;20216;-74
2023/04/26 02:03:11;;;;;;;7.70;7.00;;;;;;;6.53;100.00;100428.22;5079023;28;20251;-74
2023/04/26 02:05:37;;;;;;;8.93;8.13;;;;;;;6.45;100.00;100431.56;5062561;28;20294;-73
2023/04/26 02:08:03;;;;;;;7.87;7.27;;;;;;;6.34;100.00;100436.63;5080222;28;20231;-74
2023/04/26 02:10:28;;;;;;;7.80;7.20;;;;;;;6.25;100.00;100429.66;5077932;28;21024;-74
2023/04/26 02:12:54;;;;;;;7.10;6.50;;;;;;;6.17;100.00;100433.84;5081048;28;20190;-74
2023/04/26 02:15:20;;;;;;;6.80;6.30;;;;;;;6.09;100.00;100433.75;5080801;28;20202;-73
2023/04/26 02:17:45;;;;;;;7.47;6.87;;;;;;;6.00;100.00;100433.66;5080467;28;20662;-73
2023/04/26 02:20:11;;;;;;;6.83;6.33;;;;;;;5.93;100.00;100436.09;5063414;28;20240;-74
2023/04/26 02:22:36;;;;;;;7.47;6.87;;;;;;;5.86;100.00;100428.28;5081188;28;20268;-73
2023/04/26 02:25:02;;;;;;;8.27;7.53;;;;;;;5.78;100.00;100439.34;5061137;28;20187;-74
2023/04/26 02:27:27;;;;;;;7.30;6.70;;;;;;;5.69;100.00;100438.34;5065080;28;20210;-74
2023/04/26 02:29:53;;;;;;;7.30;6.70;;;;;;;5.60;100.00;100439.94;5078953;28;20231;-74
2023/04/26 02:32:18;;;;;;;6.87;6.37;;;;;;;5.52;100.00;100438.97;5077358;28;20214;-74
2023/04/26 02:34:43;;;;;;;6.50;6.00;;;;;;;5.46;100.00;100449.16;5078386;28;20590;-73
2023/04/26 02:37:09;;;;;;;7.03;6.53;;;;;;;5.39;100.00;100447.34;5080299;28;20217;-73
2023/04/26 02:39:35;;;;;;;6.50;6.00;;;;;;;5.34;100.00;100443.00;5078712;28;20188;-74
2023/04/26 02:42:00;;;;;;;6.73;6.20;;;;;;;5.30;100.00;100442.94;5081202;28;20616;-74
2023/04/26 02:44:28;;;;;;;7.80;7.20;;;;;;;5.26;100.00;100436.03;5076700;28;20702;-74
2023/04/26 02:46:53;;;;;;;7.30;6.70;;;;;;;5.22;100.00;100441.97;5079059;28;20571;-74
2023/04/26 02:49:19;;;;;;;6.67;6.17;;;;;;;5.18;100.00;100441.03;5080406;28;20196;-73
2023/04/26 02:51:44;;;;;;;6.67;6.17;;;;;;;5.16;100.00;100435.00;5076124;28;20216;-74
2023/04/26 02:54:09;;;;;;;6.67;6.17;;;;;;;5.12;100.00;100436.69;5083717;28;20183;-73
2023/04/26 02:56:35;;;;;;;7.30;6.70;;;;;;;5.08;100.00;100436.63;5081949;28;20209;-74
2023/04/26 02:59:00;;;;;;;6.60;6.10;;;;;;;5.04;100.00;100436.56;5081377;28;20729;-74
2023/04/26 03:01:26;;;;;;;6.60;6.10;;;;;;;5.00;100.00;100432.22;5078706;28;20203;-73
2023/04/26 03:03:51;;;;;;;7.00;6.50;;;;;;;4.96;100.00;100443.28;5080766;28;20692;-74
2023/04/26 03:06:16;;;;;;;5.87;5.37;;;;;;;4.87;100.00;100436.28;5084920;28;20286;-73
2023/04/26 03:08:42;;;;;;;5.83;5.43;;;;;;;4.80;100.00;100441.28;5083683;28;20198;-72
2023/04/26 03:11:07;;;;;;;6.43;5.93;;;;;;;4.77;100.00;100442.06;5080244;28;20576;-73
2023/04/26 03:13:32;;;;;;;7.40;6.80;;;;;;;4.71;100.00;100440.28;5080983;28;20197;-74
2023/04/26 03:15:58;;;;;;;6.30;5.80;;;;;;;4.68;100.00;100437.69;5079321;28;20588;-73
2023/04/26 03:18:23;;;;;;;7.17;6.57;;;;;;;4.68;100.00;100437.69;5080562;28;20700;-74
2023/04/26 03:20:49;;;;;;;7.93;7.23;;;;;;;4.67;100.00;100430.81;5061015;28;20214;-73
2023/04/26 03:23:14;;;;;;;7.50;6.90;;;;;;;4.67;100.00;100429.94;5077579;28;20228;-74
2023/04/26 03:25:39;;;;;;;7.00;6.40;;;;;;;4.63;100.00;100429.03;5077705;28;20185;-74
2023/04/26 03:28:05;;;;;;;7.63;6.93;;;;;;;4.61;100.00;100428.16;5079947;28;20197;-74
2023/04/26 03:30:30;;;;;;;7.67;7.07;;;;;;;4.60;100.00;100428.97;5075137;28;20208;-74
2023/04/26 03:32:56;;;;;;;8.20;7.50;;;;;;;4.58;100.00;100436.66;5084490;28;20189;-73
2023/04/26 03:35:21;;;;;;;7.60;6.90;;;;;;;4.54;100.00;100434.88;5083216;28;20185;-73
2023/04/26 03:37:47;;;;;;;7.00;6.47;;;;;;;4.51;100.00;100442.50;5081744;28;20208;-74
2023/04/26 03:40:12;;;;;;;7.10;6.50;;;;;;;4.49;100.00;100441.59;5078498;28;20259;-73
2023/04/26 03:42:38;;;;;;;7.40;6.80;;;;;;;4.46;100.00;100446.69;5081068;28;20997;-74
2023/04/26 03:45:04;;;;;;;7.23;6.63;;;;;;;4.45;100.00;100451.75;5081144;28;20189;-74
2023/04/26 03:47:30;;;;;;;7.63;7.03;;;;;;;4.49;100.00;100446.72;5078127;28;20257;-73
2023/04/26 03:49:56;;;;;;;8.10;7.40;;;;;;;4.57;100.00;100449.41;5079245;28;20169;-74
2023/04/26 03:52:21;;;;;;;9.07;8.20;;;;;;;4.65;100.00;100439.31;5080037;28;20181;-74
2023/04/26 03:54:47;;;;;;;10.07;9.07;;;;;;;4.70;100.00;100438.53;5082009;28;20220;-74
2023/04/26 03:57:12;;;;;;;9.13;8.23;;;;;;;4.75;100.00;100436.09;5082395;28;20220;-74
2023/04/26 03:59:37;;;;;;;11.03;10.00;;;;;;;4.79;100.00;100434.44;5082316;28;20231;-74
2023/04/26 04:02:03;;;;;;;10.67;9.67;;;;;;;4.81;100.00;100435.31;5080482;28;20185;-74
2023/04/26 04:04:28;;;;;;;11.33;10.23;;;;;;;4.84;100.00;100430.25;5080866;28;20284;-74
2023/04/26 04:06:53;;;;;;;10.53;9.53;;;;;;;4.85;100.00;100434.53;5080806;28;20555;-73
2023/04/26 04:09:18;;;;;;;11.83;10.77;;;;;;;4.87;100.00;100432.84;5079370;28;20201;-73
2023/04/26 04:11:44;;;;;;;11.30;10.20;;;;;;;4.90;100.00;100432.91;5081921;28;20280;-73
2023/04/26 04:14:09;;;;;;;10.20;9.20;;;;;;;4.93;100.00;100443.22;5080063;28;20194;-74
2023/04/26 04:16:35;;;;;;;9.27;8.50;;;;;;;4.94;100.00;100438.94;5081268;28;20185;-73
2023/04/26 04:19:00;;;;;;;10.03;8.90;;;;;;;4.97;100.00;100444.13;5079213;28;20202;-73
2023/04/26 04:21:26;;;;;;;12.30;9.00;;;;;;;4.97;100.00;100442.44;5079103;28;20205;-74
2023/04/26 04:23:52;;;;;;;9.37;8.60;;;;;;;4.97;100.00;100442.44;5074980;28;20565;-73
2023/04/26 04:26:18;;;;;;;10.27;8.70;;;;;;;4.99;100.00;100435.59;5080486;28;20269;-73
2023/04/26 04:28:44;;;;;;;8.13;7.53;;;;;;;4.99;100.00;100439.88;5082217;28;20211;-74
2023/04/26 04:31:10;;;;;;;8.17;7.37;;;;;;;5.03;100.00;100439.13;5078696;28;20725;-74
2023/04/26 04:33:36;;;;;;;7.40;6.70;;;;;;;5.04;100.00;100439.13;5064196;28;20197;-73
2023/04/26 04:36:01;;;;;;;8.00;7.30;;;;;;;5.07;100.00;100440.00;5059902;28;20186;-74
2023/04/26 04:38:28;;;;;;;7.90;7.20;;;;;;;5.10;100.00;100440.06;5079705;28;20213;-74
2023/04/26 04:40:53;;;;;;;8.67;7.10;;;;;;;5.13;100.00;100443.53;5076689;28;20219;-74
2023/04/26 04:43:18;;;;;;;7.63;6.60;;;;;;;5.22;100.00;100459.94;5078519;28;20178;-74
2023/04/26 04:45:44;;;;;;;6.90;6.30;;;;;;;5.30;100.00;100445.50;5083323;28;20273;-73
2023/04/26 04:48:10;;;;;;;6.63;6.13;;;;;;;5.40;100.00;100456.78;5077008;28;20592;-73
2023/04/26 04:50:38;;;;;;;7.93;6.00;;;;;;;5.48;100.00;100465.44;5076022;28;20202;-74
2023/04/26 04:53:03;;;;;;;6.40;5.80;;;;;;;5.50;100.00;100458.63;5058579;28;20553;-74
2023/04/26 04:55:29;;;;;;;12.13;5.60;;;;;;;5.48;100.00;100461.19;5080404;28;20184;-74
2023/04/26 04:57:54;;;;;;;9.13;5.17;;;;;;;5.47;100.00;100458.56;5079335;28;20229;-73
2023/04/26 05:00:20;;;;;;;9.47;5.00;;;;;;;5.49;100.00;100467.16;5075567;28;20645;-74
2023/04/26 05:02:45;;;;;;;5.33;4.93;;;;;;;5.52;100.00;100474.91;5076867;28;20182;-74
2023/04/26 05:05:11;;;;;;;7.17;5.53;;;;;;;5.66;100.00;100472.56;5080930;28;20706;-74
2023/04/26 05:07:36;;;;;;;5.87;5.47;;;;;;;5.83;100.00;100472.78;5078402;28;20213;-74
2023/04/26 05:10:02;;;;;;;7.40;5.77;;;;;;;6.04;100.00;100476.53;5075100;28;20901;-74
2023/04/26 05:12:28;;;;;;;5.80;5.20;;;;;;;6.20;100.00;100469.84;5071315;28;20210;-74
2023/04/26 05:14:53;;;;;;;7.77;6.00;;;;;;;6.41;100.00;100476.94;5079651;28;20734;-75
2023/04/26 05:17:19;;;;;;;5.73;5.33;;;;;;;6.68;100.00;100468.66;5075553;28;20202;-74
2023/04/26 05:19:44;;;;;;;5.30;4.90;;;;;;;6.99;100.00;100463.81;5073615;28;20267;-72
2023/04/26 05:22:11;;;;;;;5.37;4.97;;;;;;;7.36;100.00;100465.81;5073094;28;20190;-74
2023/04/26 05:24:37;;;;;;;5.83;5.23;;;;;;;7.71;100.00;100477.19;5078694;28;20243;-74
2023/04/26 05:27:03;;;;;;;5.30;4.90;;;;;;;8.02;100.00;100479.91;5080149;28;21026;-73
2023/04/26 05:29:29;;;;;;;4.60;4.30;;;;;;;8.49;100.00;100475.81;5079500;28;20717;-73
2023/04/26 05:31:55;;;;;;;4.83;4.50;;;;;;;9.25;100.00;100478.50;5077049;28;20181;-74
2023/04/26 05:34:22;;;;;;;5.70;5.30;;;;;;;9.97;100.00;100477.50;5079860;28;20674;-74
2023/04/26 05:36:47;;;;;;;4.90;4.60;;;;;;;10.69;100.00;100470.28;5079729;28;20181;-73
2023/04/26 05:39:13;;;;;;;4.87;4.57;;;;;;;11.47;100.00;100478.28;5078517;28;20194;-73
2023/04/26 05:41:38;;;;;;;4.97;4.57;;;;;;;12.18;99.53;100472.34;5079319;28;20241;-73
2023/04/26 05:44:03;;;;;;;4.60;4.23;;;;;;;12.79;96.21;100476.72;5087013;28;20567;-74
2023/04/26 05:46:29;;;;;;;4.57;4.17;;;;;;;13.27;92.79;100468.13;5076884;28;20196;-74
2023/04/26 05:48:54;;;;;;;4.10;3.80;;;;;;;13.80;90.47;100472.44;5080380;28;20209;-74
2023/04/26 05:51:20;;;;;;;4.27;3.87;;;;;;;14.28;88.53;100477.53;5074525;28;20244;-74
2023/04/26 05:53:45;;;;;;;4.33;4.03;;;;;;;14.77;86.28;100472.13;5077220;28;20191;-74
2023/04/26 05:56:10;;;;;;;3.80;3.50;;;;;;;15.21;84.89;100480.59;5077074;28;20193;-74
2023/04/26 05:58:35;;;;;;;4.27;3.63;;;;;;;15.57;81.95;100481.44;5077590;28;20271;-74
2023/04/26 06:01:01;;;;;;;3.80;3.50;;;;;;;15.77;80.57;100478.31;5075998;28;20734;-73
2023/04/26 06:03:26;;;;;;;3.63;3.33;;;;;;;15.78;80.82;100493.06;5078314;28;20635;-73
2023/04/26 06:05:51;;;;;;;3.33;3.03;;;;;;;15.80;80.36;100494.75;5080050;28;20663;-73
2023/04/26 06:08:17;;;;;;;4.83;3.30;;;;;;;16.20;79.84;100494.53;5077797;28;20212;-73
2023/04/26 06:10:42;;;;;;;3.53;3.07;;;;;;;16.67;78.22;100494.88;5080110;28;20273;-74
2023/04/26 06:13:07;;;;;;;4.70;3.30;;;;;;;17.08;77.22;100494.50;5078142;28;20204;-74
2023/04/26 06:15:33;;;;;;;3.50;3.20;;;;;;;17.39;76.16;100495.22;5080791;28;20200;-74
2023/04/26 06:17:58;;;;;;;3.67;3.37;;;;;;;17.67;75.04;100498.59;5079327;28;20295;-74
2023/04/26 06:20:24;;;;;;;5.07;4.60;;;;;;;18.01;74.21;100503.56;5077319;28;20217;-74
2023/04/26 06:22:49;;;;;;;5.10;3.33;;;;;;;18.26;72.82;100499.09;5076896;28;20219;-74
2023/04/26 06:25:15;;;;;;;4.07;3.60;;;;;;;18.39;71.82;100488.16;5080576;28;20187;-75
2023/04/26 06:27:40;;;;;;;3.27;3.00;;;;;;;18.51;70.99;100492.06;5080986;28;20208;-75
2023/04/26 06:30:06;;;;;;;4.00;3.60;;;;;;;18.48;69.33;100481.72;5079548;28;20861;-74
2023/04/26 06:32:32;;;;;;;5.00;3.80;;;;;;;18.56;68.51;100484.91;5081656;28;21173;-75
2023/04/26 06:34:57;;;;;;;6.97;4.07;;;;;;;18.29;68.18;100485.06;5079485;28;20184;-73
2023/04/26 06:37:23;;;;;;;5.97;4.20;;;;;;;18.06;67.92;100483.31;5083120;28;20215;-74
2023/04/26 06:39:48;;;;;;;4.43;4.03;;;;;;;18.11;67.64;100482.22;5081947;28;20180;-74
2023/04/26 06:42:13;;;;;;;4.73;3.80;;;;;;;18.14;67.10;100483.84;5083494;28;20656;-74
2023/04/26 06:44:39;;;;;;;4.90;4.40;;;;;;;18.19;66.83;100483.69;5083396;28;20283;-75
2023/04/26 06:47:08;;;;;;;5.00;4.50;;;;;;;18.13;66.58;100480.41;5079675;28;20262;-75
2023/04/26 06:49:34;;;;;;;5.73;4.40;;;;;;;18.23;66.40;100482.66;5080086;28;20219;-75
2023/04/26 06:51:59;;;;;;;5.53;5.03;;;;;;;18.08;65.93;100477.09;5080014;28;20289;-75
2023/04/26 06:54:28;;;;;;;6.57;5.13;;;;;;;17.79;65.25;100481.59;5082202;28;20285;-75
2023/04/26 06:56:54;;;;;;;9.77;5.33;;;;;;;17.70;66.05;100481.06;5082300;28;20182;-75
2023/04/26 06:59:19;;;;;;;6.00;5.40;;;;;;;17.36;65.76;100477.88;5079515;28;20239;-74
2023/04/26 07:01:44;;;;;;;5.40;4.90;;;;;;;17.19;66.55;100471.47;5082668;28;20220;-75
2023/04/26 07:04:10;;;;;;;8.00;5.50;;;;;;;17.22;67.22;100462.63;5082077;28;20751;-74
2023/04/26 07:06:37;;;;;;;5.23;4.70;;;;;;;17.30;67.05;100460.63;5083348;28;20971;-74
2023/04/26 07:09:03;;;;;;;5.93;4.83;;;;;;;17.21;67.48;100453.97;5081675;28;20331;-74
2023/04/26 07:11:29;;;;;;;7.90;5.40;;;;;;;17.21;67.78;100453.97;5082220;28;20264;-74
2023/04/26 07:13:55;;;;;;;9.77;5.40;;;;;;;17.01;67.34;100453.75;5078997;28;20204;-74
2023/04/26 07:16:20;;;;;;;8.77;5.40;;;;;;;16.80;68.61;100461.34;5082372;28;20795;-74
2023/04/26 07:18:47;;;;;;;5.70;5.13;;;;;;;16.68;68.69;100462.63;5078234;28;20255;-75
2023/04/26 07:21:13;;;;;;;8.70;5.70;;;;;;;16.55;69.52;100454.31;5082188;28;20274;-74
2023/04/26 07:23:38;;;;;;;6.03;5.50;;;;;;;16.32;69.51;100454.16;5081597;28;20241;-75
2023/04/26 07:26:03;;;;;;;7.40;5.70;;;;;;;16.02;70.25;100456.78;5082434;28;20186;-74
2023/04/26 07:28:32;;;;;;;6.43;5.47;;;;;;;15.69;72.06;100457.63;5080786;28;21146;-74
2023/04/26 07:30:59;;;;;;;6.60;6.00;;;;;;;15.51;72.30;100456.41;5081630;28;20923;-73
2023/04/26 07:33:24;;;;;;;6.73;5.73;;;;;;;15.36;72.51;100458.50;5080820;28;20592;-73
2023/04/26 07:35:58;;;;;;;6.23;5.67;;;;;;;15.25;73.32;100457.94;5082789;28;20193;-74
2023/04/26 07:38:24;;;;;;;8.57;6.33;;;;;;;15.13;73.04;100466.91;5062417;28;20818;-74
2023/04/26 07:40:50;;;;;;;8.00;6.07;;;;;;;14.90;73.86;100464.88;5080146;28;20212;-74
2023/04/26 07:43:16;;;;;;;6.67;6.07;;;;;;;14.76;74.03;100471.28;5078298;28;20197;-74
2023/04/26 07:45:42;;;;;;;7.90;5.80;;;;;;;14.53;74.31;100461.34;5081136;28;20180;-75
2023/04/26 07:48:07;;;;;;;7.00;5.90;;;;;;;14.39;75.23;100469.47;5078567;28;20232;-74
2023/04/26 07:50:32;;;;;;;6.67;5.53;;;;;;;14.07;74.71;100464.94;5080396;28;20192;-75
2023/04/26 07:52:58;;;;;;;9.40;6.13;;;;;;;13.71;75.62;100463.91;5080707;28;20227;-74
2023/04/26 07:55:23;;;;;;;9.17;5.43;;;;;;;13.76;76.77;100458.63;5078263;28;20181;-75
2023/04/26 07:57:48;;;;;;;7.70;5.67;;;;;;;13.79;76.18;100455.94;5078227;28;20290;-74
2023/04/26 08:00:15;;;;;;;7.27;5.37;;;;;;;13.64;75.27;100462.31;5078956;28;20216;-75
2023/04/26 08:02:41;;;;;;;7.40;5.60;;;;;;;13.47;75.46;100470.41;5078917;28;20183;-75
2023/04/26 08:05:06;;;;;;;6.03;5.40;;;;;;;13.27;75.14;100463.81;5064011;28;20736;-74
2023/04/26 08:07:32;;;;;;;6.73;4.83;;;;;;;13.18;74.69;100474.34;5082660;28;20371;-74
2023/04/26 08:09:57;;;;;;;10.77;5.17;;;;;;;13.01;74.13;100466.84;5081201;28;20178;-73
2023/04/26 08:12:22;;;;;;;14.30;6.17;;;;;;;13.06;75.12;100459.84;5030971;28;20235;-75
2023/04/26 08:14:48;;;;;;;7.07;5.07;;;;;;;13.15;76.10;100458.81;5079896;28;20203;-74
2023/04/26 08:17:13;;;;;;;9.70;5.60;;;;;;;13.12;75.75;100456.28;5082282;28;20681;-74
2023/04/26 08:19:40;;;;;;;7.73;5.00;;;;;;;12.87;72.96;100461.00;5081736;28;20232;-74
2023/04/26 08:22:06;;;;;;;7.17;5.07;;;;;;;12.81;74.34;100456.78;5079430;28;20187;-74
2023/04/26 08:24:31;;;;;;;6.83;5.00;;;;;;;12.70;73.78;100462.13;5079029;28;20187;-74
2023/04/26 08:26:57;;;;;;;5.77;4.33;;;;;;;12.58;74.25;100468.34;5083300;28;20281;-73
2023/04/26 08:29:23;;;;;;;6.83;4.37;;;;;;;12.52;73.79;100460.66;5079682;28;20203;-75
2023/04/26 08:31:49;;;;;;;5.03;4.27;;;;;;;12.49;73.03;100466.72;5078103;28;20899;-74
2023/04/26 08:34:14;;;;;;;6.40;4.60;;;;;;;12.44;73.26;100470.28;5079339;28;20184;-72
2023/04/26 08:36:40;;;;;;;6.47;3.83;;;;;;;12.38;72.16;100479.00;5081773;28;20652;-74
2023/04/26 08:39:07;;;;;;;5.37;3.97;;;;;;;12.38;71.19;100467.78;5043711;28;20296;-73
2023/04/26 08:41:36;;;;;;;7.43;5.50;;;;;;;12.46;72.96;100461.59;5079841;28;21123;-74
2023/04/26 08:44:04;;;;;;;7.30;4.93;;;;;;;12.52;73.58;100452.88;5082355;28;20186;-74
2023/04/26 08:46:40;;;;;;;6.13;4.67;;;;;;;12.62;73.25;100454.44;5058761;28;20732;-75
2023/04/26 08:49:19;;;;;;;6.07;4.80;;;;;;;12.74;71.01;100448.22;5076394;28;20228;-74
2023/04/26 08:51:45;;;;;;;4.60;3.70;;;;;;;12.91;70.00;100450.53;5079154;28;20664;-73
2023/04/26 08:54:11;;;;;;;3.70;3.33;;;;;;;13.10;68.48;100442.44;5080088;28;20836;-75
2023/04/26 08:56:38;;;;;;;4.70;3.47;;;;;;;13.34;68.58;100443.75;5078906;28;20191;-75
2023/04/26 08:59:04;;;;;;;5.90;3.63;;;;;;;13.56;68.24;100436.47;5079743;28;20572;-75
2023/04/26 09:01:31;;;;;;;6.00;4.23;;;;;;;13.87;66.98;100442.78;5075849;28;20211;-75
2023/04/26 09:03:57;;;;;;;4.40;3.40;;;;;;;14.17;66.54;100443.91;5075866;28;20245;-74
2023/04/26 09:06:23;;;;;;;4.10;3.50;;;;;;;14.45;65.94;100440.69;5078813;28;20192;-75
2023/04/26 09:08:52;;;;;;;4.87;3.13;;;;;;;14.56;64.08;100439.59;5082801;28;20209;-75
2023/04/26 09:11:17;;;;;;;4.53;3.03;;;;;;;14.67;63.44;100428.91;5078932;28;20185;-75
2023/04/26 09:13:42;;;;;;;5.27;3.43;;;;;;;14.73;63.54;100429.66;5070982;28;20607;-75
2023/04/26 09:16:08;;;;;;;6.53;3.70;;;;;;;14.76;63.57;100431.31;5072019;28;20187;-75
2023/04/26 09:18:33;;;;;;;10.00;4.03;;;;;;;14.92;63.76;100429.22;5078581;28;20216;-75
2023/04/26 09:21:02;;;;;;;6.40;3.70;;;;;;;15.16;63.42;100426.88;5079662;28;20606;-75
2023/04/26 09:23:27;;;;;;;3.50;2.50;;;;;;;15.30;62.38;100431.75;5078872;28;20719;-74
2023/04/26 09:25:53;;;;;;;4.97;3.07;;;;;;;15.23;61.39;100433.66;5077808;28;20246;-75
2023/04/26 09:28:21;;;;;;;4.17;2.70;;;;;;;15.05;60.84;100428.00;5080754;28;20205;-75
2023/04/26 09:30:47;;;;;;;5.70;2.70;;;;;;;15.16;61.38;100429.47;5080847;28;20216;-75
2023/04/26 09:33:12;;;;;;;4.30;2.77;;;;;;;15.33;61.64;100427.31;5078603;28;20219;-74
2023/04/26 09:35:39;;;;;;;4.20;2.20;;;;;;;15.61;61.88;100417.88;5080190;28;20185;-74
2023/04/26 09:38:06;;;;;;;4.07;2.43;;;;;;;15.91;62.20;100424.00;5080138;28;20211;-75
2023/04/26 09:40:36;;;;;;;3.83;2.43;;;;;;;15.96;60.60;100416.91;5080676;28;20236;-74
2023/04/26 09:43:10;;;;;;;3.27;2.33;;;;;;;16.13;60.08;100426.00;5081561;28;20181;-74
2023/04/26 09:45:53;;;;;;;4.27;2.73;;;;;;;16.12;58.49;100416.44;5081226;28;20184;-75
2023/04/26 09:48:24;;;;;;;4.70;2.57;;;;;;;16.25;58.72;100409.09;5078589;28;20817;-75
2023/04/26 09:50:51;;;;;;;6.23;2.60;;;;;;;16.25;58.42;100404.72;5081514;28;20192;-75
2023/04/26 09:53:37;;;;;;;3.67;2.70;;;;;;;16.07;57.60;100420.94;5078726;28;20199;-74
2023/04/26 09:56:09;;;;;;;4.63;2.23;;;;;;;16.12;58.56;100419.06;5080699;28;20307;-74
2023/04/26 09:59:00;;;;;;;4.40;2.20;;;;;;;16.39;58.88;100419.97;5086217;28;20212;-75
2023/04/26 10:01:32;;;;;;;2.73;2.17;;;;;;;16.55;57.83;100417.72;5093240;28;20242;-75
2023/04/26 10:04:00;;;;;;;4.57;2.23;;;;;;;16.75;57.81;100411.84;5085151;28;20217;-74
2023/04/26 10:06:27;;;;;;;4.50;2.77;;;;;;;16.77;57.10;100415.28;5083061;28;20557;-74
2023/04/26 10:08:53;;;;;;;3.80;2.20;;;;;;;16.37;56.24;100408.72;5084709;28;20289;-74
2023/04/26 10:11:20;;;;;;;2.13;1.93;;;;;;;16.46;56.91;100412.81;5085420;28;20202;-74
2023/04/26 10:13:45;;;;;;;5.80;2.60;;;;;;;16.60;56.28;100408.00;5083971;28;20280;-74
2023/04/26 10:16:11;;;;;;;4.30;2.57;;;;;;;16.61;56.11;100403.59;5080834;28;20193;-74
2023/04/26 10:18:36;;;;;;;3.63;2.20;;;;;;;16.80;56.28;100393.41;5084638;28;20209;-75
2023/04/26 10:21:25;;;;;;;6.10;3.17;;;;;;;16.62;54.71;100394.88;5082874;28;20325;-74
2023/04/26 10:23:50;;;;;;;4.43;2.57;;;;;;;16.54;55.82;100396.88;5084177;28;20242;-75
2023/04/26 10:26:52;;;;;;;5.53;2.93;;;;;;;16.32;56.25;100405.38;5084281;28;20371;-74
2023/04/26 10:29:18;;;;;;;5.03;3.00;;;;;;;16.53;56.08;100403.84;5083521;28;20206;-74
2023/04/26 10:32:03;;;;;;;3.87;2.30;;;;;;;16.60;55.70;100400.16;5085319;28;20247;-74
2023/04/26 10:34:30;;;;;;;4.30;2.40;;;;;;;16.73;55.84;100394.53;5084563;28;20194;-74
2023/04/26 10:37:10;;;;;;;5.07;2.43;;;;;;;16.94;55.73;100392.13;5083020;28;20207;-75
2023/04/26 10:39:37;;;;;;;2.50;2.10;;;;;;;17.08;55.36;100396.88;5083984;28;20176;-73
2023/04/26 10:42:23;;;;;;;5.23;2.33;;;;;;;16.87;52.73;100396.66;5082415;28;20216;-75
2023/04/26 10:44:57;;;;;;;3.87;2.20;;;;;;;16.77;53.10;100396.97;5083376;28;21919;-74
2023/04/26 10:47:33;;;;;;;3.13;2.17;;;;;;;17.12;53.55;100390.66;5084356;28;20223;-74
2023/04/26 10:50:09;;;;;;;3.80;2.10;;;;;;;17.40;53.00;100384.44;5083410;28;20703;-74
2023/04/26 10:52:37;;;;;;;4.97;2.27;;;;;;;17.32;52.13;100392.56;5083388;28;20238;-74
2023/04/26 10:55:04;;;;;;;4.67;2.43;;;;;;;17.48;52.36;100379.78;5083561;28;20195;-74
2023/04/26 10:57:49;;;;;;;5.73;2.27;;;;;;;17.47;52.67;100378.94;5084585;28;20216;-74
2023/04/26 11:00:16;;;;;;;4.53;2.33;;;;;;;17.40;52.68;100382.66;5083668;28;20220;-74
2023/04/26 11:02:48;;;;;;;3.27;2.10;;;;;;;17.46;51.99;100371.16;5085159;28;20192;-74
2023/04/26 11:05:31;;;;;;;6.07;2.10;;;;;;;17.36;52.54;100358.38;5085060;28;20251;-74
2023/04/26 11:08:18;;;;;;;3.83;2.30;;;;;;;17.46;52.76;100361.53;5083838;28;20247;-72
2023/04/26 11:10:56;;;;;;;4.50;2.20;;;;;;;17.55;52.07;100349.88;5083342;28;20188;-74
2023/04/26 11:13:22;;;;;;;3.47;2.30;;;;;;;17.76;52.54;100337.75;5083631;28;20214;-74
2023/04/26 11:15:52;;;;;;;2.40;1.50;;;;;;;18.08;52.88;100340.03;5085120;28;20286;-73
2023/04/26 11:18:19;;;;;;;2.17;1.60;;;;;;;18.46;53.30;100342.03;5085686;28;20656;-74
2023/04/26 11:20:45;;;;;;;2.03;1.83;;;;;;;18.76;53.59;100341.66;5086129;28;20213;-75
2023/04/26 11:23:10;;;;;;;3.77;2.00;;;;;;;18.80;52.74;100335.38;5087312;28;20182;-74